sensor_id;sensor_type;location;lat;lon;timestamp;P1;durP1;ratioP1;P2;durP2;ratioP2
73898;SDS011;62234;50.892;12.724;2024-02-16T00:00:12;4.78;;;2.30;;
73898;SDS011;62234;50.892;12.724;2024-02-16T00:02:39;7.57;;;2.58;;
73898;SDS011;62234;50.892;12.724;2024-02-16T00:05:06;4.47;;;2.10;;
73898;SDS011;62234;50.892;12.724;2024-02-16T00:07:33;2.20;;;1.75;;
73898;SDS011;62234;50.892;12.724;2024-02-16T00:09:59;2.65;;;1.27;;
73898;SDS011;62234;50.892;12.724;2024-02-16T00:12:30;3.35;;;1.90;;
73898;SDS011;62234;50.892;12.724;2024-02-16T00:14:57;4.75;;;2.60;;
73898;SDS011;62234;50.892;12.724;2024-02-16T00:17:23;5.05;;;2.58;;
73898;SDS011;62234;50.892;12.724;2024-02-16T00:19:51;3.45;;;2.70;;
73898;SDS011;62234;50.892;12.724;2024-02-16T00:22:17;3.15;;;2.13;;
73898;SDS011;62234;50.892;12.724;2024-02-16T00:24:43;6.28;;;3.00;;
73898;SDS011;62234;50.892;12.724;2024-02-16T00:27:09;7.20;;;3.10;;
73898;SDS011;62234;50.892;12.724;2024-02-16T00:29:35;2.95;;;2.03;;
73898;SDS011;62234;50.892;12.724;2024-02-16T00:32:03;3.95;;;2.17;;
73898;SDS011;62234;50.892;12.724;2024-02-16T00:34:31;4.22;;;2.15;;
73898;SDS011;62234;50.892;12.724;2024-02-16T00:36:56;3.33;;;1.80;;
73898;SDS011;62234;50.892;12.724;2024-02-16T00:39:22;3.92;;;1.85;;
73898;SDS011;62234;50.892;12.724;2024-02-16T00:41:49;1.63;;;1.52;;
73898;SDS011;62234;50.892;12.724;2024-02-16T00:44:15;2.35;;;1.70;;
73898;SDS011;62234;50.892;12.724;2024-02-16T00:46:42;2.28;;;1.63;;
73898;SDS011;62234;50.892;12.724;2024-02-16T00:49:08;2.75;;;1.60;;
73898;SDS011;62234;50.892;12.724;2024-02-16T00:51:35;2.97;;;1.95;;
73898;SDS011;62234;50.892;12.724;2024-02-16T00:54:01;3.40;;;2.10;;
73898;SDS011;62234;50.892;12.724;2024-02-16T00:56:28;2.65;;;2.03;;
73898;SDS011;62234;50.892;12.724;2024-02-16T00:58:54;2.08;;;1.77;;
73898;SDS011;62234;50.892;12.724;2024-02-16T01:01:20;3.80;;;2.40;;
73898;SDS011;62234;50.892;12.724;2024-02-16T01:03:47;2.78;;;2.15;;
73898;SDS011;62234;50.892;12.724;2024-02-16T01:06:13;5.05;;;1.85;;
73898;SDS011;62234;50.892;12.724;2024-02-16T01:08:39;2.88;;;1.55;;
73898;SDS011;62234;50.892;12.724;2024-02-16T01:11:05;3.30;;;1.90;;
73898;SDS011;62234;50.892;12.724;2024-02-16T01:13:32;2.75;;;2.17;;
73898;SDS011;62234;50.892;12.724;2024-02-16T01:15:58;3.47;;;1.45;;
73898;SDS011;62234;50.892;12.724;2024-02-16T01:18:25;2.13;;;1.67;;
73898;SDS011;62234;50.892;12.724;2024-02-16T01:20:51;4.10;;;1.75;;
73898;SDS011;62234;50.892;12.724;2024-02-16T01:23:17;4.10;;;1.50;;
73898;SDS011;62234;50.892;12.724;2024-02-16T01:25:43;4.55;;;1.90;;
73898;SDS011;62234;50.892;12.724;2024-02-16T01:28:09;3.58;;;1.83;;
73898;SDS011;62234;50.892;12.724;2024-02-16T01:30:37;2.80;;;1.88;;
73898;SDS011;62234;50.892;12.724;2024-02-16T01:33:03;3.00;;;1.77;;
73898;SDS011;62234;50.892;12.724;2024-02-16T01:35:30;4.82;;;2.05;;
73898;SDS011;62234;50.892;12.724;2024-02-16T01:37:55;3.35;;;1.67;;
73898;SDS011;62234;50.892;12.724;2024-02-16T01:40:21;1.65;;;1.55;;
73898;SDS011;62234;50.892;12.724;2024-02-16T01:42:47;1.52;;;1.42;;
73898;SDS011;62234;50.892;12.724;2024-02-16T01:45:13;2.45;;;1.98;;
73898;SDS011;62234;50.892;12.724;2024-02-16T01:47:41;4.00;;;1.88;;
73898;SDS011;62234;50.892;12.724;2024-02-16T01:50:07;1.83;;;1.63;;
73898;SDS011;62234;50.892;12.724;2024-02-16T01:52:34;4.43;;;1.65;;
73898;SDS011;62234;50.892;12.724;2024-02-16T01:55:02;4.40;;;1.45;;
73898;SDS011;62234;50.892;12.724;2024-02-16T01:57:28;2.28;;;1.75;;
73898;SDS011;62234;50.892;12.724;2024-02-16T01:59:54;3.10;;;2.35;;
73898;SDS011;62234;50.892;12.724;2024-02-16T02:02:20;4.30;;;1.95;;
73898;SDS011;62234;50.892;12.724;2024-02-16T02:04:46;3.60;;;2.05;;
73898;SDS011;62234;50.892;12.724;2024-02-16T02:07:13;6.50;;;2.22;;
73898;SDS011;62234;50.892;12.724;2024-02-16T02:09:39;4.22;;;2.38;;
73898;SDS011;62234;50.892;12.724;2024-02-16T02:12:05;4.60;;;2.85;;
73898;SDS011;62234;50.892;12.724;2024-02-16T02:14:31;6.82;;;3.33;;
73898;SDS011;62234;50.892;12.724;2024-02-16T02:16:57;5.53;;;2.47;;
73898;SDS011;62234;50.892;12.724;2024-02-16T02:19:23;5.60;;;2.45;;
73898;SDS011;62234;50.892;12.724;2024-02-16T02:21:49;4.60;;;2.92;;
73898;SDS011;62234;50.892;12.724;2024-02-16T02:24:15;6.30;;;3.85;;
73898;SDS011;62234;50.892;12.724;2024-02-16T02:26:41;7.88;;;3.95;;
73898;SDS011;62234;50.892;12.724;2024-02-16T02:29:07;10.07;;;3.70;;
73898;SDS011;62234;50.892;12.724;2024-02-16T02:31:33;7.72;;;3.63;;
73898;SDS011;62234;50.892;12.724;2024-02-16T02:33:59;9.02;;;3.45;;
73898;SDS011;62234;50.892;12.724;2024-02-16T02:36:25;6.03;;;3.58;;
73898;SDS011;62234;50.892;12.724;2024-02-16T02:38:51;5.40;;;2.35;;
73898;SDS011;62234;50.892;12.724;2024-02-16T02:41:17;6.88;;;2.50;;
73898;SDS011;62234;50.892;12.724;2024-02-16T02:43:44;2.13;;;1.88;;
73898;SDS011;62234;50.892;12.724;2024-02-16T02:46:14;2.90;;;1.73;;
73898;SDS011;62234;50.892;12.724;2024-02-16T02:48:41;3.88;;;1.63;;
73898;SDS011;62234;50.892;12.724;2024-02-16T02:51:08;3.30;;;1.75;;
73898;SDS011;62234;50.892;12.724;2024-02-16T02:53:34;3.22;;;1.98;;
73898;SDS011;62234;50.892;12.724;2024-02-16T02:56:01;3.30;;;1.85;;
73898;SDS011;62234;50.892;12.724;2024-02-16T02:58:27;2.47;;;1.55;;
73898;SDS011;62234;50.892;12.724;2024-02-16T03:00:53;3.55;;;2.25;;
73898;SDS011;62234;50.892;12.724;2024-02-16T03:03:20;4.55;;;1.80;;
73898;SDS011;62234;50.892;12.724;2024-02-16T03:05:46;3.83;;;2.10;;
73898;SDS011;62234;50.892;12.724;2024-02-16T03:08:12;5.78;;;2.55;;
73898;SDS011;62234;50.892;12.724;2024-02-16T03:10:38;4.82;;;2.05;;
73898;SDS011;62234;50.892;12.724;2024-02-16T03:13:04;2.92;;;2.03;;
73898;SDS011;62234;50.892;12.724;2024-02-16T03:15:32;4.68;;;2.40;;
73898;SDS011;62234;50.892;12.724;2024-02-16T03:17:58;6.40;;;2.67;;
73898;SDS011;62234;50.892;12.724;2024-02-16T03:20:24;3.03;;;2.17;;
73898;SDS011;62234;50.892;12.724;2024-02-16T03:22:50;3.67;;;2.22;;
73898;SDS011;62234;50.892;12.724;2024-02-16T03:25:16;3.60;;;2.17;;
73898;SDS011;62234;50.892;12.724;2024-02-16T03:27:42;4.97;;;2.60;;
73898;SDS011;62234;50.892;12.724;2024-02-16T03:30:09;3.80;;;2.22;;
73898;SDS011;62234;50.892;12.724;2024-02-16T03:32:35;3.33;;;2.58;;
73898;SDS011;62234;50.892;12.724;2024-02-16T03:35:01;4.13;;;1.98;;
73898;SDS011;62234;50.892;12.724;2024-02-16T03:37:27;2.35;;;1.67;;
73898;SDS011;62234;50.892;12.724;2024-02-16T03:39:53;3.40;;;2.10;;
73898;SDS011;62234;50.892;12.724;2024-02-16T03:42:19;2.47;;;1.73;;
73898;SDS011;62234;50.892;12.724;2024-02-16T03:44:46;4.70;;;2.28;;
73898;SDS011;62234;50.892;12.724;2024-02-16T03:47:12;2.90;;;2.05;;
73898;SDS011;62234;50.892;12.724;2024-02-16T03:49:38;5.82;;;2.03;;
73898;SDS011;62234;50.892;12.724;2024-02-16T03:52:05;3.70;;;2.22;;
73898;SDS011;62234;50.892;12.724;2024-02-16T03:54:31;5.20;;;2.83;;
73898;SDS011;62234;50.892;12.724;2024-02-16T03:56:57;3.33;;;2.30;;
73898;SDS011;62234;50.892;12.724;2024-02-16T03:59:23;7.80;;;2.30;;
73898;SDS011;62234;50.892;12.724;2024-02-16T04:01:49;3.50;;;2.40;;
73898;SDS011;62234;50.892;12.724;2024-02-16T04:04:15;6.53;;;3.17;;
73898;SDS011;62234;50.892;12.724;2024-02-16T04:06:41;5.95;;;3.05;;
73898;SDS011;62234;50.892;12.724;2024-02-16T04:09:07;7.78;;;3.25;;
73898;SDS011;62234;50.892;12.724;2024-02-16T04:11:33;5.30;;;2.47;;
73898;SDS011;62234;50.892;12.724;2024-02-16T04:14:00;3.22;;;2.25;;
73898;SDS011;62234;50.892;12.724;2024-02-16T04:16:26;7.15;;;2.92;;
73898;SDS011;62234;50.892;12.724;2024-02-16T04:18:52;7.03;;;2.95;;
73898;SDS011;62234;50.892;12.724;2024-02-16T04:21:19;4.03;;;2.47;;
73898;SDS011;62234;50.892;12.724;2024-02-16T04:23:45;3.92;;;2.58;;
73898;SDS011;62234;50.892;12.724;2024-02-16T04:26:11;3.53;;;2.25;;
73898;SDS011;62234;50.892;12.724;2024-02-16T04:28:37;2.53;;;2.03;;
73898;SDS011;62234;50.892;12.724;2024-02-16T04:31:03;2.22;;;2.03;;
73898;SDS011;62234;50.892;12.724;2024-02-16T04:33:29;2.78;;;1.90;;
73898;SDS011;62234;50.892;12.724;2024-02-16T04:35:55;5.22;;;2.85;;
73898;SDS011;62234;50.892;12.724;2024-02-16T04:38:21;6.72;;;3.33;;
73898;SDS011;62234;50.892;12.724;2024-02-16T04:40:47;6.18;;;3.40;;
73898;SDS011;62234;50.892;12.724;2024-02-16T04:43:13;5.18;;;3.10;;
73898;SDS011;62234;50.892;12.724;2024-02-16T04:45:39;7.38;;;2.90;;
73898;SDS011;62234;50.892;12.724;2024-02-16T04:48:05;5.15;;;3.00;;
73898;SDS011;62234;50.892;12.724;2024-02-16T04:50:31;6.47;;;3.28;;
73898;SDS011;62234;50.892;12.724;2024-02-16T04:52:58;8.98;;;3.47;;
73898;SDS011;62234;50.892;12.724;2024-02-16T04:55:24;5.15;;;2.83;;
73898;SDS011;62234;50.892;12.724;2024-02-16T04:57:50;4.03;;;2.20;;
73898;SDS011;62234;50.892;12.724;2024-02-16T05:00:16;3.05;;;1.98;;
73898;SDS011;62234;50.892;12.724;2024-02-16T05:02:42;4.00;;;1.98;;
73898;SDS011;62234;50.892;12.724;2024-02-16T05:05:08;2.97;;;1.83;;
73898;SDS011;62234;50.892;12.724;2024-02-16T05:07:34;6.10;;;2.08;;
73898;SDS011;62234;50.892;12.724;2024-02-16T05:10:03;2.53;;;1.88;;
73898;SDS011;62234;50.892;12.724;2024-02-16T05:12:29;3.75;;;1.90;;
73898;SDS011;62234;50.892;12.724;2024-02-16T05:14:55;3.30;;;1.58;;
73898;SDS011;62234;50.892;12.724;2024-02-16T05:17:21;1.65;;;1.45;;
73898;SDS011;62234;50.892;12.724;2024-02-16T05:19:47;3.30;;;2.17;;
73898;SDS011;62234;50.892;12.724;2024-02-16T05:22:13;2.25;;;1.17;;
73898;SDS011;62234;50.892;12.724;2024-02-16T05:24:39;1.25;;;0.90;;
73898;SDS011;62234;50.892;12.724;2024-02-16T05:27:05;1.48;;;0.90;;
73898;SDS011;62234;50.892;12.724;2024-02-16T05:29:31;0.82;;;0.80;;
73898;SDS011;62234;50.892;12.724;2024-02-16T05:31:57;3.10;;;1.10;;
73898;SDS011;62234;50.892;12.724;2024-02-16T05:34:23;0.95;;;0.77;;
73898;SDS011;62234;50.892;12.724;2024-02-16T05:36:49;0.75;;;0.73;;
73898;SDS011;62234;50.892;12.724;2024-02-16T05:39:15;1.48;;;1.38;;
73898;SDS011;62234;50.892;12.724;2024-02-16T05:41:48;1.30;;;0.80;;
73898;SDS011;62234;50.892;12.724;2024-02-16T05:44:14;3.03;;;1.40;;
73898;SDS011;62234;50.892;12.724;2024-02-16T05:46:40;2.78;;;2.30;;
73898;SDS011;62234;50.892;12.724;2024-02-16T05:49:06;3.00;;;2.20;;
73898;SDS011;62234;50.892;12.724;2024-02-16T05:51:35;2.85;;;2.35;;
73898;SDS011;62234;50.892;12.724;2024-02-16T05:54:01;2.75;;;1.40;;
73898;SDS011;62234;50.892;12.724;2024-02-16T05:56:27;3.22;;;1.83;;
73898;SDS011;62234;50.892;12.724;2024-02-16T05:58:53;3.30;;;1.73;;
73898;SDS011;62234;50.892;12.724;2024-02-16T06:01:19;2.08;;;1.92;;
73898;SDS011;62234;50.892;12.724;2024-02-16T06:03:45;2.40;;;1.65;;
73898;SDS011;62234;50.892;12.724;2024-02-16T06:06:11;3.55;;;1.95;;
73898;SDS011;62234;50.892;12.724;2024-02-16T06:08:37;2.53;;;1.70;;
73898;SDS011;62234;50.892;12.724;2024-02-16T06:11:06;3.72;;;2.30;;
73898;SDS011;62234;50.892;12.724;2024-02-16T06:13:32;5.85;;;2.70;;
73898;SDS011;62234;50.892;12.724;2024-02-16T06:15:58;7.07;;;3.00;;
73898;SDS011;62234;50.892;12.724;2024-02-16T06:18:24;6.20;;;3.03;;
73898;SDS011;62234;50.892;12.724;2024-02-16T06:20:50;8.68;;;3.97;;
73898;SDS011;62234;50.892;12.724;2024-02-16T06:23:16;5.20;;;3.03;;
73898;SDS011;62234;50.892;12.724;2024-02-16T06:25:42;8.18;;;4.13;;
73898;SDS011;62234;50.892;12.724;2024-02-16T06:28:08;6.45;;;2.47;;
73898;SDS011;62234;50.892;12.724;2024-02-16T06:30:34;4.70;;;2.88;;
73898;SDS011;62234;50.892;12.724;2024-02-16T06:33:00;6.40;;;2.67;;
73898;SDS011;62234;50.892;12.724;2024-02-16T06:35:27;4.22;;;2.83;;
73898;SDS011;62234;50.892;12.724;2024-02-16T06:37:53;3.55;;;2.08;;
73898;SDS011;62234;50.892;12.724;2024-02-16T06:40:19;3.67;;;2.22;;
73898;SDS011;62234;50.892;12.724;2024-02-16T06:42:44;4.10;;;2.03;;
73898;SDS011;62234;50.892;12.724;2024-02-16T06:45:11;2.17;;;1.50;;
73898;SDS011;62234;50.892;12.724;2024-02-16T06:47:37;1.70;;;1.50;;
73898;SDS011;62234;50.892;12.724;2024-02-16T06:50:03;2.42;;;1.85;;
73898;SDS011;62234;50.892;12.724;2024-02-16T06:52:29;3.20;;;1.63;;
73898;SDS011;62234;50.892;12.724;2024-02-16T06:54:55;3.50;;;1.65;;
73898;SDS011;62234;50.892;12.724;2024-02-16T06:57:21;3.08;;;1.90;;
73898;SDS011;62234;50.892;12.724;2024-02-16T06:59:47;2.35;;;1.73;;
73898;SDS011;62234;50.892;12.724;2024-02-16T07:02:13;2.65;;;1.70;;
73898;SDS011;62234;50.892;12.724;2024-02-16T07:04:41;3.10;;;1.73;;
73898;SDS011;62234;50.892;12.724;2024-02-16T07:07:07;6.70;;;2.33;;
73898;SDS011;62234;50.892;12.724;2024-02-16T07:09:33;2.17;;;1.10;;
73898;SDS011;62234;50.892;12.724;2024-02-16T07:11:59;1.35;;;0.90;;
73898;SDS011;62234;50.892;12.724;2024-02-16T07:14:25;4.78;;;2.78;;
73898;SDS011;62234;50.892;12.724;2024-02-16T07:16:51;2.45;;;1.40;;
73898;SDS011;62234;50.892;12.724;2024-02-16T07:19:17;2.72;;;1.90;;
73898;SDS011;62234;50.892;12.724;2024-02-16T07:21:43;2.05;;;1.20;;
73898;SDS011;62234;50.892;12.724;2024-02-16T07:24:09;3.97;;;1.67;;
73898;SDS011;62234;50.892;12.724;2024-02-16T07:26:35;2.80;;;1.45;;
73898;SDS011;62234;50.892;12.724;2024-02-16T07:29:01;6.03;;;1.40;;
73898;SDS011;62234;50.892;12.724;2024-02-16T07:31:34;3.33;;;1.95;;
73898;SDS011;62234;50.892;12.724;2024-02-16T07:34:00;7.88;;;3.40;;
73898;SDS011;62234;50.892;12.724;2024-02-16T07:36:26;4.75;;;2.75;;
73898;SDS011;62234;50.892;12.724;2024-02-16T07:38:52;3.95;;;3.30;;
73898;SDS011;62234;50.892;12.724;2024-02-16T07:41:18;4.72;;;3.35;;
73898;SDS011;62234;50.892;12.724;2024-02-16T07:43:44;4.53;;;2.42;;
73898;SDS011;62234;50.892;12.724;2024-02-16T07:46:10;4.13;;;2.00;;
73898;SDS011;62234;50.892;12.724;2024-02-16T07:48:36;2.95;;;2.20;;
73898;SDS011;62234;50.892;12.724;2024-02-16T07:51:02;2.80;;;2.15;;
73898;SDS011;62234;50.892;12.724;2024-02-16T07:53:28;3.78;;;2.60;;
73898;SDS011;62234;50.892;12.724;2024-02-16T07:55:54;3.65;;;1.88;;
73898;SDS011;62234;50.892;12.724;2024-02-16T07:58:20;5.88;;;1.45;;
73898;SDS011;62234;50.892;12.724;2024-02-16T08:00:46;2.30;;;1.30;;
73898;SDS011;62234;50.892;12.724;2024-02-16T08:03:12;4.32;;;2.22;;
73898;SDS011;62234;50.892;12.724;2024-02-16T08:05:38;4.38;;;3.10;;
73898;SDS011;62234;50.892;12.724;2024-02-16T08:08:04;5.45;;;2.95;;
73898;SDS011;62234;50.892;12.724;2024-02-16T08:10:30;4.10;;;2.88;;
73898;SDS011;62234;50.892;12.724;2024-02-16T08:12:56;4.95;;;3.10;;
73898;SDS011;62234;50.892;12.724;2024-02-16T08:15:22;2.65;;;2.40;;
73898;SDS011;62234;50.892;12.724;2024-02-16T08:17:49;4.25;;;2.92;;
73898;SDS011;62234;50.892;12.724;2024-02-16T08:20:15;4.45;;;2.00;;
73898;SDS011;62234;50.892;12.724;2024-02-16T08:22:41;3.15;;;1.90;;
73898;SDS011;62234;50.892;12.724;2024-02-16T08:25:08;4.13;;;1.88;;
73898;SDS011;62234;50.892;12.724;2024-02-16T08:27:34;2.22;;;1.88;;
73898;SDS011;62234;50.892;12.724;2024-02-16T08:30:00;3.05;;;1.50;;
73898;SDS011;62234;50.892;12.724;2024-02-16T08:32:29;2.08;;;1.27;;
73898;SDS011;62234;50.892;12.724;2024-02-16T08:34:55;5.90;;;3.45;;
73898;SDS011;62234;50.892;12.724;2024-02-16T08:37:23;4.93;;;2.53;;
73898;SDS011;62234;50.892;12.724;2024-02-16T08:39:49;2.58;;;2.38;;
73898;SDS011;62234;50.892;12.724;2024-02-16T08:42:15;4.43;;;3.47;;
73898;SDS011;62234;50.892;12.724;2024-02-16T08:44:41;3.92;;;2.95;;
73898;SDS011;62234;50.892;12.724;2024-02-16T08:47:07;6.93;;;3.40;;
73898;SDS011;62234;50.892;12.724;2024-02-16T08:49:34;5.45;;;2.78;;
73898;SDS011;62234;50.892;12.724;2024-02-16T08:52:00;2.10;;;1.90;;
73898;SDS011;62234;50.892;12.724;2024-02-16T08:54:26;2.08;;;1.05;;
73898;SDS011;62234;50.892;12.724;2024-02-16T08:56:55;1.60;;;0.93;;
73898;SDS011;62234;50.892;12.724;2024-02-16T08:59:21;4.55;;;2.83;;
73898;SDS011;62234;50.892;12.724;2024-02-16T09:01:47;1.00;;;0.90;;
73898;SDS011;62234;50.892;12.724;2024-02-16T09:04:13;3.08;;;1.65;;
73898;SDS011;62234;50.892;12.724;2024-02-16T09:06:40;3.35;;;1.20;;
73898;SDS011;62234;50.892;12.724;2024-02-16T09:09:06;2.00;;;0.80;;
73898;SDS011;62234;50.892;12.724;2024-02-16T09:11:32;3.63;;;0.82;;
73898;SDS011;62234;50.892;12.724;2024-02-16T09:13:59;1.38;;;1.08;;
73898;SDS011;62234;50.892;12.724;2024-02-16T09:16:25;1.35;;;0.82;;
73898;SDS011;62234;50.892;12.724;2024-02-16T09:18:51;1.80;;;1.08;;
73898;SDS011;62234;50.892;12.724;2024-02-16T09:21:17;2.08;;;1.00;;
73898;SDS011;62234;50.892;12.724;2024-02-16T09:23:44;1.15;;;0.88;;
73898;SDS011;62234;50.892;12.724;2024-02-16T09:26:10;1.20;;;0.60;;
73898;SDS011;62234;50.892;12.724;2024-02-16T09:28:39;1.20;;;0.40;;
73898;SDS011;62234;50.892;12.724;2024-02-16T09:31:09;0.65;;;0.50;;
73898;SDS011;62234;50.892;12.724;2024-02-16T09:33:35;1.35;;;0.38;;
73898;SDS011;62234;50.892;12.724;2024-02-16T09:36:01;0.70;;;0.32;;
73898;SDS011;62234;50.892;12.724;2024-02-16T09:38:27;3.17;;;0.60;;
73898;SDS011;62234;50.892;12.724;2024-02-16T09:40:53;0.98;;;0.70;;
73898;SDS011;62234;50.892;12.724;2024-02-16T09:43:23;1.45;;;0.75;;
73898;SDS011;62234;50.892;12.724;2024-02-16T09:45:52;0.68;;;0.45;;
73898;SDS011;62234;50.892;12.724;2024-02-16T09:48:18;1.10;;;0.25;;
73898;SDS011;62234;50.892;12.724;2024-02-16T09:50:45;0.20;;;0.20;;
73898;SDS011;62234;50.892;12.724;2024-02-16T09:53:11;0.30;;;0.30;;
73898;SDS011;62234;50.892;12.724;2024-02-16T09:55:37;0.40;;;0.40;;
73898;SDS011;62234;50.892;12.724;2024-02-16T09:58:03;3.50;;;0.60;;
73898;SDS011;62234;50.892;12.724;2024-02-16T10:00:30;0.50;;;0.40;;
73898;SDS011;62234;50.892;12.724;2024-02-16T10:02:56;0.55;;;0.25;;
73898;SDS011;62234;50.892;12.724;2024-02-16T10:05:21;0.50;;;0.20;;
73898;SDS011;62234;50.892;12.724;2024-02-16T10:07:48;0.22;;;0.22;;
73898;SDS011;62234;50.892;12.724;2024-02-16T10:10:20;0.10;;;0.10;;
73898;SDS011;62234;50.892;12.724;2024-02-16T10:12:47;0.20;;;0.10;;
73898;SDS011;62234;50.892;12.724;2024-02-16T10:15:18;0.70;;;0.20;;
73898;SDS011;62234;50.892;12.724;2024-02-16T10:17:45;0.40;;;0.10;;
73898;SDS011;62234;50.892;12.724;2024-02-16T10:20:17;0.65;;;0.32;;
73898;SDS011;62234;50.892;12.724;2024-02-16T10:22:43;1.20;;;0.10;;
73898;SDS011;62234;50.892;12.724;2024-02-16T10:25:09;1.25;;;0.20;;
73898;SDS011;62234;50.892;12.724;2024-02-16T10:27:37;0.30;;;0.17;;
73898;SDS011;62234;50.892;12.724;2024-02-16T10:30:05;0.68;;;0.20;;
73898;SDS011;62234;50.892;12.724;2024-02-16T10:32:38;0.28;;;0.10;;
73898;SDS011;62234;50.892;12.724;2024-02-16T10:35:04;0.10;;;0.10;;
73898;SDS011;62234;50.892;12.724;2024-02-16T10:37:32;0.50;;;0.17;;
73898;SDS011;62234;50.892;12.724;2024-02-16T10:39:58;0.50;;;0.10;;
73898;SDS011;62234;50.892;12.724;2024-02-16T10:42:27;0.45;;;0.30;;
73898;SDS011;62234;50.892;12.724;2024-02-16T10:44:55;0.30;;;0.20;;
73898;SDS011;62234;50.892;12.724;2024-02-16T10:47:21;0.60;;;0.30;;
73898;SDS011;62234;50.892;12.724;2024-02-16T10:49:47;0.20;;;0.20;;
73898;SDS011;62234;50.892;12.724;2024-02-16T10:52:13;0.55;;;0.35;;
73898;SDS011;62234;50.892;12.724;2024-02-16T10:54:40;0.17;;;0.17;;
73898;SDS011;62234;50.892;12.724;2024-02-16T10:57:09;0.10;;;0.10;;
73898;SDS011;62234;50.892;12.724;2024-02-16T10:59:41;0.35;;;0.35;;
73898;SDS011;62234;50.892;12.724;2024-02-16T11:02:16;0.30;;;0.30;;
73898;SDS011;62234;50.892;12.724;2024-02-16T11:04:45;0.40;;;0.20;;
73898;SDS011;62234;50.892;12.724;2024-02-16T11:07:11;0.82;;;0.20;;
73898;SDS011;62234;50.892;12.724;2024-02-16T11:09:38;1.10;;;0.40;;
73898;SDS011;62234;50.892;12.724;2024-02-16T11:12:05;1.20;;;0.32;;
73898;SDS011;62234;50.892;12.724;2024-02-16T11:14:36;1.60;;;0.40;;
73898;SDS011;62234;50.892;12.724;2024-02-16T11:17:15;1.75;;;0.73;;
73898;SDS011;62234;50.892;12.724;2024-02-16T11:19:45;0.43;;;0.40;;
73898;SDS011;62234;50.892;12.724;2024-02-16T11:22:14;2.58;;;0.30;;
73898;SDS011;62234;50.892;12.724;2024-02-16T11:24:43;0.70;;;0.30;;
73898;SDS011;62234;50.892;12.724;2024-02-16T11:27:10;0.30;;;0.30;;
73898;SDS011;62234;50.892;12.724;2024-02-16T11:29:36;0.10;;;0.10;;
73898;SDS011;62234;50.892;12.724;2024-02-16T11:32:03;0.20;;;0.17;;
73898;SDS011;62234;50.892;12.724;2024-02-16T11:34:30;0.13;;;0.13;;
73898;SDS011;62234;50.892;12.724;2024-02-16T11:36:56;0.20;;;0.17;;
73898;SDS011;62234;50.892;12.724;2024-02-16T11:39:22;0.22;;;0.20;;
73898;SDS011;62234;50.892;12.724;2024-02-16T11:41:58;0.30;;;0.25;;
73898;SDS011;62234;50.892;12.724;2024-02-16T11:44:26;0.65;;;0.25;;
73898;SDS011;62234;50.892;12.724;2024-02-16T11:46:55;0.20;;;0.20;;
73898;SDS011;62234;50.892;12.724;2024-02-16T11:49:21;0.60;;;0.20;;
73898;SDS011;62234;50.892;12.724;2024-02-16T11:51:47;2.00;;;0.30;;
73898;SDS011;62234;50.892;12.724;2024-02-16T11:54:13;1.40;;;0.20;;
73898;SDS011;62234;50.892;12.724;2024-02-16T11:56:40;0.40;;;0.20;;
73898;SDS011;62234;50.892;12.724;2024-02-16T11:59:09;0.50;;;0.30;;
73898;SDS011;62234;50.892;12.724;2024-02-16T12:01:35;0.20;;;0.20;;
73898;SDS011;62234;50.892;12.724;2024-02-16T12:04:01;0.50;;;0.30;;
73898;SDS011;62234;50.892;12.724;2024-02-16T12:06:28;0.38;;;0.30;;
73898;SDS011;62234;50.892;12.724;2024-02-16T12:08:55;0.40;;;0.20;;
73898;SDS011;62234;50.892;12.724;2024-02-16T12:11:20;1.00;;;0.28;;
73898;SDS011;62234;50.892;12.724;2024-02-16T12:13:48;0.50;;;0.45;;
73898;SDS011;62234;50.892;12.724;2024-02-16T12:16:15;0.63;;;0.32;;
73898;SDS011;62234;50.892;12.724;2024-02-16T12:18:43;0.40;;;0.32;;
73898;SDS011;62234;50.892;12.724;2024-02-16T12:21:10;0.63;;;0.20;;
73898;SDS011;62234;50.892;12.724;2024-02-16T12:23:36;0.30;;;0.20;;
73898;SDS011;62234;50.892;12.724;2024-02-16T12:26:02;0.20;;;0.20;;
73898;SDS011;62234;50.892;12.724;2024-02-16T12:28:30;0.65;;;0.40;;
73898;SDS011;62234;50.892;12.724;2024-02-16T12:31:01;0.50;;;0.30;;
73898;SDS011;62234;50.892;12.724;2024-02-16T12:33:27;0.70;;;0.10;;
73898;SDS011;62234;50.892;12.724;2024-02-16T12:35:52;0.32;;;0.30;;
73898;SDS011;62234;50.892;12.724;2024-02-16T12:38:19;0.40;;;0.38;;
73898;SDS011;62234;50.892;12.724;2024-02-16T12:40:46;1.30;;;0.52;;
73898;SDS011;62234;50.892;12.724;2024-02-16T12:43:12;0.22;;;0.22;;
73898;SDS011;62234;50.892;12.724;2024-02-16T12:45:38;1.38;;;0.57;;
73898;SDS011;62234;50.892;12.724;2024-02-16T12:48:04;0.95;;;0.60;;
73898;SDS011;62234;50.892;12.724;2024-02-16T12:50:31;2.13;;;0.32;;
73898;SDS011;62234;50.892;12.724;2024-02-16T12:52:57;2.30;;;0.50;;
73898;SDS011;62234;50.892;12.724;2024-02-16T12:55:23;2.63;;;0.35;;
73898;SDS011;62234;50.892;12.724;2024-02-16T12:57:49;0.63;;;0.60;;
73898;SDS011;62234;50.892;12.724;2024-02-16T13:00:18;1.17;;;0.30;;
73898;SDS011;62234;50.892;12.724;2024-02-16T13:02:44;2.90;;;0.45;;
73898;SDS011;62234;50.892;12.724;2024-02-16T13:05:10;0.85;;;0.40;;
73898;SDS011;62234;50.892;12.724;2024-02-16T13:07:36;1.63;;;0.45;;
73898;SDS011;62234;50.892;12.724;2024-02-16T13:10:05;0.90;;;0.40;;
73898;SDS011;62234;50.892;12.724;2024-02-16T13:12:31;0.80;;;0.60;;
73898;SDS011;62234;50.892;12.724;2024-02-16T13:14:57;1.40;;;1.15;;
73898;SDS011;62234;50.892;12.724;2024-02-16T13:17:23;0.90;;;0.90;;
73898;SDS011;62234;50.892;12.724;2024-02-16T13:19:51;1.10;;;0.88;;
73898;SDS011;62234;50.892;12.724;2024-02-16T13:22:17;1.75;;;0.70;;
73898;SDS011;62234;50.892;12.724;2024-02-16T13:24:43;0.38;;;0.38;;
73898;SDS011;62234;50.892;12.724;2024-02-16T13:27:09;0.88;;;0.60;;
73898;SDS011;62234;50.892;12.724;2024-02-16T13:29:35;1.10;;;0.90;;
73898;SDS011;62234;50.892;12.724;2024-02-16T13:32:01;0.95;;;0.85;;
73898;SDS011;62234;50.892;12.724;2024-02-16T13:34:28;1.30;;;0.63;;
73898;SDS011;62234;50.892;12.724;2024-02-16T13:36:55;0.82;;;0.45;;
73898;SDS011;62234;50.892;12.724;2024-02-16T13:39:21;0.80;;;0.77;;
73898;SDS011;62234;50.892;12.724;2024-02-16T13:41:47;0.95;;;0.50;;
73898;SDS011;62234;50.892;12.724;2024-02-16T13:44:15;1.85;;;0.82;;
73898;SDS011;62234;50.892;12.724;2024-02-16T13:46:41;0.60;;;0.50;;
73898;SDS011;62234;50.892;12.724;2024-02-16T13:49:07;0.85;;;0.60;;
73898;SDS011;62234;50.892;12.724;2024-02-16T13:51:33;0.80;;;0.68;;
73898;SDS011;62234;50.892;12.724;2024-02-16T13:53:59;1.50;;;0.70;;
73898;SDS011;62234;50.892;12.724;2024-02-16T13:56:25;1.92;;;0.95;;
73898;SDS011;62234;50.892;12.724;2024-02-16T13:58:51;0.40;;;0.40;;
73898;SDS011;62234;50.892;12.724;2024-02-16T14:01:17;0.93;;;0.65;;
73898;SDS011;62234;50.892;12.724;2024-02-16T14:03:43;1.80;;;1.67;;
73898;SDS011;62234;50.892;12.724;2024-02-16T14:06:09;2.67;;;0.60;;
73898;SDS011;62234;50.892;12.724;2024-02-16T14:08:36;2.97;;;1.88;;
73898;SDS011;62234;50.892;12.724;2024-02-16T14:11:02;0.60;;;0.60;;
73898;SDS011;62234;50.892;12.724;2024-02-16T14:13:28;0.70;;;0.65;;
73898;SDS011;62234;50.892;12.724;2024-02-16T14:15:54;1.45;;;0.98;;
73898;SDS011;62234;50.892;12.724;2024-02-16T14:18:20;1.00;;;0.80;;
73898;SDS011;62234;50.892;12.724;2024-02-16T14:20:46;1.25;;;0.75;;
73898;SDS011;62234;50.892;12.724;2024-02-16T14:23:12;1.05;;;0.93;;
73898;SDS011;62234;50.892;12.724;2024-02-16T14:25:38;1.65;;;1.00;;
73898;SDS011;62234;50.892;12.724;2024-02-16T14:28:05;1.05;;;0.82;;